»·PEaware :: N587K KSNA-KSNA

N587K :: KSNA-KSNA

FLIGHT INFORMATION

Flight Status: Arrived
Operator: Privately registered:
United States
More flights under this callsign
Pilot: Ryan S. (25666)
Aircraft: PIPER PA-28 CHEROKEE ARCHER
(P28A)
More flights by this aircraft type
Origin: KSNA John Wayne-Orange Co
United States
Destination: KSNA John Wayne-Orange Co
United States
More flights between these airports :: More routes between these airports
Route: +SLI
File this flight plan on PilotEdge
Remarks: I-1 rating
Altitude:
(Current/Filed)
3,000ft
Speed:
(Current/Filed)
107kts
Departed: 01-Dec-19 05:48 PM
Arrived: 01-Dec-19 06:22 PM
Distance/Time
Traveled:
0nm/0:34
Distance/Time
To Go:
Arrived

Flight Plot

Page will automatically refresh every two minutes.


Map Options




Map Legend


Flown Route
Filed Route
Departure Airport
Arrival Airport
Navaid (VOR, NDB)
Fix

Horizontal Profiles

Position Reports

Time Latitude Longitude Heading Altitude Ground
Speed
01-Dec-19 17:21 33.670215 -117.869021 41 59ft 0kts
01-Dec-19 17:22 33.670215 -117.869021 41 59ft 0kts
01-Dec-19 17:23 33.670215 -117.869021 41 59ft 0kts
01-Dec-19 17:24 33.670215 -117.869021 41 59ft 0kts
01-Dec-19 17:25 33.670215 -117.869021 41 59ft 0kts
01-Dec-19 17:26 33.670215 -117.869021 41 59ft 0kts
01-Dec-19 17:27 33.670215 -117.869021 41 59ft 0kts
01-Dec-19 17:28 33.670215 -117.869021 41 59ft 0kts
01-Dec-19 17:29 33.670215 -117.869021 41 59ft 0kts
01-Dec-19 17:30 33.670215 -117.869021 41 59ft 0kts
01-Dec-19 17:31 33.670215 -117.869021 41 59ft 0kts
01-Dec-19 17:32 33.670215 -117.869021 41 59ft 0kts
01-Dec-19 17:33 33.670215 -117.869021 41 59ft 0kts
01-Dec-19 17:34 33.670215 -117.869021 41 59ft 0kts
01-Dec-19 17:35 33.670215 -117.869021 41 59ft 0kts
01-Dec-19 17:36 33.670215 -117.869021 41 59ft 0kts
01-Dec-19 17:37 33.670975 -117.868996 35 59ft 15kts
01-Dec-19 17:38 33.671214 -117.868788 34 59ft 17kts
01-Dec-19 17:39 33.672499 -117.867892 28 59ft 22kts
01-Dec-19 17:40 33.674028 -117.867143 29 59ft 17kts
01-Dec-19 17:41 33.675378 -117.866291 27 59ft 23kts
01-Dec-19 17:42 33.676328 -117.865693 28 59ft 25kts
01-Dec-19 17:43 33.678244 -117.864474 27 59ft 29kts
01-Dec-19 17:44 33.679969 -117.863654 294 59ft 0kts
01-Dec-19 17:45 33.679969 -117.863654 294 59ft 0kts
01-Dec-19 17:46 33.680142 -117.864024 293 59ft 8kts
01-Dec-19 17:47 33.677489 -117.865831 208 61ft 60kts
01-Dec-19 17:48 33.667550 -117.872545 212 390ft 74kts
01-Dec-19 17:49 33.660635 -117.884020 242 850ft 78kts
01-Dec-19 17:50 33.653920 -117.899969 243 1453ft 78kts
01-Dec-19 17:52 33.644905 -117.920460 243 2060ft 82kts
01-Dec-19 17:53 33.636250 -117.943715 244 2135ft 98kts
01-Dec-19 17:54 33.632026 -117.970185 300 2045ft 96kts
01-Dec-19 17:55 33.653345 -117.977181 355 2606ft 94kts
01-Dec-19 17:56 33.669412 -117.977871 352 3004ft 96kts
01-Dec-19 17:57 33.687713 -117.978371 352 3072ft 111kts
01-Dec-19 17:58 33.708572 -117.979799 0 3046ft 115kts
01-Dec-19 17:59 33.727170 -117.965962 33 2980ft 117kts
01-Dec-19 18:00 33.743697 -117.951304 36 3015ft 116kts
01-Dec-19 18:01 33.763006 -117.934684 32 3050ft 119kts
01-Dec-19 18:02 33.783124 -117.917341 32 3046ft 122kts
01-Dec-19 18:03 33.801180 -117.901716 33 3042ft 123kts
01-Dec-19 18:04 33.819726 -117.885647 32 3035ft 123kts
01-Dec-19 18:05 33.838475 -117.869915 29 3027ft 123kts
01-Dec-19 18:06 33.856921 -117.854385 31 3022ft 123kts
01-Dec-19 18:07 33.872973 -117.835454 80 3025ft 124kts
01-Dec-19 18:08 33.872632 -117.806604 90 3017ft 124kts
01-Dec-19 18:09 33.870948 -117.780242 111 3009ft 123kts
01-Dec-19 18:10 33.854107 -117.769734 194 3064ft 109kts
01-Dec-19 18:11 33.833655 -117.773986 192 3030ft 109kts
01-Dec-19 18:11 33.817782 -117.779788 202 2992ft 104kts
01-Dec-19 18:13 33.796672 -117.791586 209 2896ft 106kts
01-Dec-19 18:14 33.779080 -117.802857 210 2849ft 106kts
01-Dec-19 18:14 33.762749 -117.812775 204 2500ft 106kts
01-Dec-19 18:15 33.744005 -117.822813 210 1748ft 84kts
01-Dec-19 18:17 33.726784 -117.834929 216 1232ft 70kts
01-Dec-19 18:17 33.717387 -117.841496 210 1081ft 77kts
01-Dec-19 18:18 33.705368 -117.849707 209 818ft 87kts
01-Dec-19 18:19 33.692063 -117.858314 209 356ft 89kts
01-Dec-19 18:20 33.681049 -117.865398 208 69ft 64kts
01-Dec-19 18:21 33.678120 -117.868369 299 59ft 0kts
01-Dec-19 18:22 33.678120 -117.868369 299 59ft 0kts
01-Dec-19 18:23 33.678120 -117.868369 299 59ft 0kts
01-Dec-19 18:24 33.678120 -117.868369 299 59ft 0kts
01-Dec-19 18:25 33.678120 -117.868369 299 59ft 0kts
01-Dec-19 18:26 33.678120 -117.868369 299 59ft 0kts
01-Dec-19 18:27 33.678120 -117.868369 299 59ft 0kts
01-Dec-19 18:28 33.678120 -117.868369 299 59ft 0kts
01-Dec-19 18:29 33.678120 -117.868369 299 59ft 0kts

Navigation Log

Ident Type
Flight plan parsing failed, navigation log unavailable